KSHN/SHN METAR and TAF weather

Enter ICAO airport designator
Station Type Date Time Source
KSHN METAR 2019/12/16 05:53 UTC NOAA

KSHN 160553Z AUTO 00000KT 10SM BKN006 BKN036 OVC043 03/03 A3027 RMK AO2 SLP255 T00330028 10044 20033 51003


Station Type Date Time Source
KSHN Decoded METAR 2019/12/16 05:53 UTC NOAA

SHELTON SANDERSON FIELD, WA, United States (KSHN) 47-14N 123-08W 82M
Dec 16, 2019 - 12:53 AM EST / 2019.12.16 0553 UTC
Wind: Calm:0
Visibility: 10 mile(s):0
Sky conditions: overcast
Temperature: 37.9 F (3.3 C)
Dew Point: 37.0 F (2.8 C)
Relative Humidity: 96%
Pressure (altimeter): 30.27 in. Hg (1025 hPa)
Pressure tendency: 0.01 inches (0.3 hPa) higher than three hours ago
ob: KSHN 160553Z AUTO 00000KT 10SM BKN006 BKN036 OVC043 03/03 A3027 RMK AO2 SLP255 T00330028 10044 20033 51003
cycle: 6

Station Type Date Time Source
KSHN TAF UTC NOAA

Error!

Example: see airport list